sensor_id;sensor_type;location;lat;lon;timestamp;temperature;humidity
4435;DHT22;46552;52.150;8.428;2023-08-31T00:01:33;13.60;99.90
4435;DHT22;46552;52.150;8.428;2023-08-31T00:04:00;13.50;99.90
4435;DHT22;46552;52.150;8.428;2023-08-31T00:06:27;13.50;99.90
4435;DHT22;46552;52.150;8.428;2023-08-31T00:08:55;13.40;99.90
4435;DHT22;46552;52.150;8.428;2023-08-31T00:11:23;13.40;99.90
4435;DHT22;46552;52.150;8.428;2023-08-31T00:13:51;13.40;99.90
4435;DHT22;46552;52.150;8.428;2023-08-31T00:16:25;13.40;99.90
4435;DHT22;46552;52.150;8.428;2023-08-31T00:18:52;13.40;99.90
4435;DHT22;46552;52.150;8.428;2023-08-31T00:21:21;13.30;99.90
4435;DHT22;46552;52.150;8.428;2023-08-31T00:23:48;13.30;99.90
4435;DHT22;46552;52.150;8.428;2023-08-31T00:26:15;13.30;99.90
4435;DHT22;46552;52.150;8.428;2023-08-31T00:28:43;13.30;99.90
4435;DHT22;46552;52.150;8.428;2023-08-31T00:31:10;13.30;99.90
4435;DHT22;46552;52.150;8.428;2023-08-31T00:33:39;13.30;99.90
4435;DHT22;46552;52.150;8.428;2023-08-31T00:36:06;13.20;99.90
4435;DHT22;46552;52.150;8.428;2023-08-31T00:38:34;13.20;99.90
4435;DHT22;46552;52.150;8.428;2023-08-31T00:41:03;13.20;99.90
4435;DHT22;46552;52.150;8.428;2023-08-31T00:43:32;13.20;99.90
4435;DHT22;46552;52.150;8.428;2023-08-31T00:46:00;13.20;99.90
4435;DHT22;46552;52.150;8.428;2023-08-31T00:48:28;13.20;99.90
4435;DHT22;46552;52.150;8.428;2023-08-31T00:50:57;13.10;99.90
4435;DHT22;46552;52.150;8.428;2023-08-31T00:53:26;13.10;99.90
4435;DHT22;46552;52.150;8.428;2023-08-31T00:55:54;13.10;99.90
4435;DHT22;46552;52.150;8.428;2023-08-31T00:58:22;13.10;99.90
4435;DHT22;46552;52.150;8.428;2023-08-31T01:00:56;13.10;99.90
4435;DHT22;46552;52.150;8.428;2023-08-31T01:03:34;13.10;99.90
4435;DHT22;46552;52.150;8.428;2023-08-31T01:06:12;13.10;99.90
4435;DHT22;46552;52.150;8.428;2023-08-31T01:08:49;13.10;99.90
4435;DHT22;46552;52.150;8.428;2023-08-31T01:11:24;13.10;99.90
4435;DHT22;46552;52.150;8.428;2023-08-31T01:14:01;13.10;99.90
4435;DHT22;46552;52.150;8.428;2023-08-31T01:16:31;13.10;99.90
4435;DHT22;46552;52.150;8.428;2023-08-31T01:19:01;13.10;99.90
4435;DHT22;46552;52.150;8.428;2023-08-31T01:21:37;13.10;99.90
4435;DHT22;46552;52.150;8.428;2023-08-31T01:24:07;13.10;99.90
4435;DHT22;46552;52.150;8.428;2023-08-31T01:26:41;13.10;99.90
4435;DHT22;46552;52.150;8.428;2023-08-31T01:29:08;13.10;99.90
4435;DHT22;46552;52.150;8.428;2023-08-31T01:31:42;13.10;99.90
4435;DHT22;46552;52.150;8.428;2023-08-31T01:34:11;13.10;99.90
4435;DHT22;46552;52.150;8.428;2023-08-31T01:36:42;13.10;99.90
4435;DHT22;46552;52.150;8.428;2023-08-31T01:39:16;13.10;99.90
4435;DHT22;46552;52.150;8.428;2023-08-31T01:41:51;13.10;99.90
4435;DHT22;46552;52.150;8.428;2023-08-31T01:44:21;13.10;99.90
4435;DHT22;46552;52.150;8.428;2023-08-31T01:46:52;13.10;99.90
4435;DHT22;46552;52.150;8.428;2023-08-31T01:49:20;13.10;99.90
4435;DHT22;46552;52.150;8.428;2023-08-31T01:51:47;13.10;99.90
4435;DHT22;46552;52.150;8.428;2023-08-31T01:54:17;13.10;99.90
4435;DHT22;46552;52.150;8.428;2023-08-31T01:56:45;13.10;99.90
4435;DHT22;46552;52.150;8.428;2023-08-31T01:59:12;13.10;99.90
4435;DHT22;46552;52.150;8.428;2023-08-31T02:01:40;13.10;99.90
4435;DHT22;46552;52.150;8.428;2023-08-31T02:04:07;13.10;99.90
4435;DHT22;46552;52.150;8.428;2023-08-31T02:06:35;13.10;99.90
4435;DHT22;46552;52.150;8.428;2023-08-31T02:09:02;13.00;99.90
4435;DHT22;46552;52.150;8.428;2023-08-31T02:11:33;13.00;99.90
4435;DHT22;46552;52.150;8.428;2023-08-31T02:14:03;13.00;99.90
4435;DHT22;46552;52.150;8.428;2023-08-31T02:16:31;13.00;99.90
4435;DHT22;46552;52.150;8.428;2023-08-31T02:18:59;13.00;99.90
4435;DHT22;46552;52.150;8.428;2023-08-31T02:21:26;13.00;99.90
4435;DHT22;46552;52.150;8.428;2023-08-31T02:23:53;13.00;99.90
4435;DHT22;46552;52.150;8.428;2023-08-31T02:26:22;12.90;99.90
4435;DHT22;46552;52.150;8.428;2023-08-31T02:28:50;13.00;99.90
4435;DHT22;46552;52.150;8.428;2023-08-31T02:31:18;12.90;99.90
4435;DHT22;46552;52.150;8.428;2023-08-31T02:33:46;12.90;99.90
4435;DHT22;46552;52.150;8.428;2023-08-31T02:36:13;12.90;99.90
4435;DHT22;46552;52.150;8.428;2023-08-31T02:38:40;12.90;99.90
4435;DHT22;46552;52.150;8.428;2023-08-31T02:41:08;12.90;99.90
4435;DHT22;46552;52.150;8.428;2023-08-31T02:43:36;12.90;99.90
4435;DHT22;46552;52.150;8.428;2023-08-31T02:46:07;12.80;99.90
4435;DHT22;46552;52.150;8.428;2023-08-31T02:48:34;12.80;99.90
4435;DHT22;46552;52.150;8.428;2023-08-31T02:51:01;12.80;99.90
4435;DHT22;46552;52.150;8.428;2023-08-31T02:53:29;12.80;99.90
4435;DHT22;46552;52.150;8.428;2023-08-31T02:55:57;12.80;99.90
4435;DHT22;46552;52.150;8.428;2023-08-31T02:58:25;12.80;99.90
4435;DHT22;46552;52.150;8.428;2023-08-31T03:00:52;12.80;99.90
4435;DHT22;46552;52.150;8.428;2023-08-31T03:03:21;12.80;99.90
4435;DHT22;46552;52.150;8.428;2023-08-31T03:05:48;12.80;99.90
4435;DHT22;46552;52.150;8.428;2023-08-31T03:08:15;12.80;99.90
4435;DHT22;46552;52.150;8.428;2023-08-31T03:10:43;12.80;99.90
4435;DHT22;46552;52.150;8.428;2023-08-31T03:13:10;12.80;99.90
4435;DHT22;46552;52.150;8.428;2023-08-31T03:15:38;12.80;99.90
4435;DHT22;46552;52.150;8.428;2023-08-31T03:18:05;12.70;99.90
4435;DHT22;46552;52.150;8.428;2023-08-31T03:20:33;12.70;99.90
4435;DHT22;46552;52.150;8.428;2023-08-31T03:23:01;12.70;99.90
4435;DHT22;46552;52.150;8.428;2023-08-31T03:25:28;12.70;99.90
4435;DHT22;46552;52.150;8.428;2023-08-31T03:27:56;12.60;99.90
4435;DHT22;46552;52.150;8.428;2023-08-31T03:30:24;12.60;99.90
4435;DHT22;46552;52.150;8.428;2023-08-31T03:32:51;12.70;99.90
4435;DHT22;46552;52.150;8.428;2023-08-31T03:35:18;12.60;99.90
4435;DHT22;46552;52.150;8.428;2023-08-31T03:37:48;12.70;99.90
4435;DHT22;46552;52.150;8.428;2023-08-31T03:40:15;12.60;99.90
4435;DHT22;46552;52.150;8.428;2023-08-31T03:42:43;12.60;99.90
4435;DHT22;46552;52.150;8.428;2023-08-31T03:45:10;12.60;99.90
4435;DHT22;46552;52.150;8.428;2023-08-31T03:47:37;12.60;99.90
4435;DHT22;46552;52.150;8.428;2023-08-31T03:50:06;12.60;99.90
4435;DHT22;46552;52.150;8.428;2023-08-31T03:52:33;12.60;99.90
4435;DHT22;46552;52.150;8.428;2023-08-31T03:55:02;12.60;99.90
4435;DHT22;46552;52.150;8.428;2023-08-31T03:57:30;12.60;99.90
4435;DHT22;46552;52.150;8.428;2023-08-31T03:59:57;12.50;99.90
4435;DHT22;46552;52.150;8.428;2023-08-31T04:02:24;12.50;99.90
4435;DHT22;46552;52.150;8.428;2023-08-31T04:04:51;12.50;99.90
4435;DHT22;46552;52.150;8.428;2023-08-31T04:07:18;12.50;99.90
4435;DHT22;46552;52.150;8.428;2023-08-31T04:09:45;12.50;99.90
4435;DHT22;46552;52.150;8.428;2023-08-31T04:12:14;12.50;99.90
4435;DHT22;46552;52.150;8.428;2023-08-31T04:14:42;12.50;99.90
4435;DHT22;46552;52.150;8.428;2023-08-31T04:17:09;12.50;99.90
4435;DHT22;46552;52.150;8.428;2023-08-31T04:19:36;12.50;99.90
4435;DHT22;46552;52.150;8.428;2023-08-31T04:22:03;12.50;99.90
4435;DHT22;46552;52.150;8.428;2023-08-31T04:24:31;12.50;99.90
4435;DHT22;46552;52.150;8.428;2023-08-31T04:26:58;12.50;99.90
4435;DHT22;46552;52.150;8.428;2023-08-31T04:29:28;12.50;99.90
4435;DHT22;46552;52.150;8.428;2023-08-31T04:31:56;12.50;99.90
4435;DHT22;46552;52.150;8.428;2023-08-31T04:34:24;12.50;99.90
4435;DHT22;46552;52.150;8.428;2023-08-31T04:36:52;12.50;99.90
4435;DHT22;46552;52.150;8.428;2023-08-31T04:39:19;12.50;99.90
4435;DHT22;46552;52.150;8.428;2023-08-31T04:41:46;12.60;99.90
4435;DHT22;46552;52.150;8.428;2023-08-31T04:44:14;12.60;99.90
4435;DHT22;46552;52.150;8.428;2023-08-31T04:46:42;12.60;99.90
4435;DHT22;46552;52.150;8.428;2023-08-31T04:49:09;12.60;99.90
4435;DHT22;46552;52.150;8.428;2023-08-31T04:51:37;12.60;99.90
4435;DHT22;46552;52.150;8.428;2023-08-31T04:54:05;12.60;99.90
4435;DHT22;46552;52.150;8.428;2023-08-31T04:56:33;12.60;99.90
4435;DHT22;46552;52.150;8.428;2023-08-31T04:59:01;12.70;99.90
4435;DHT22;46552;52.150;8.428;2023-08-31T05:01:30;12.70;99.90
4435;DHT22;46552;52.150;8.428;2023-08-31T05:03:59;12.70;99.90
4435;DHT22;46552;52.150;8.428;2023-08-31T05:06:28;12.80;99.90
4435;DHT22;46552;52.150;8.428;2023-08-31T05:08:56;12.80;99.90
4435;DHT22;46552;52.150;8.428;2023-08-31T05:11:23;12.80;99.90
4435;DHT22;46552;52.150;8.428;2023-08-31T05:13:51;12.80;99.90
4435;DHT22;46552;52.150;8.428;2023-08-31T05:16:18;12.80;99.90
4435;DHT22;46552;52.150;8.428;2023-08-31T05:18:45;12.80;99.90
4435;DHT22;46552;52.150;8.428;2023-08-31T05:21:14;12.80;99.90
4435;DHT22;46552;52.150;8.428;2023-08-31T05:23:41;12.80;99.90
4435;DHT22;46552;52.150;8.428;2023-08-31T05:26:08;12.80;99.90
4435;DHT22;46552;52.150;8.428;2023-08-31T05:28:36;12.80;99.90
4435;DHT22;46552;52.150;8.428;2023-08-31T05:31:03;12.80;99.90
4435;DHT22;46552;52.150;8.428;2023-08-31T05:33:31;12.80;99.90
4435;DHT22;46552;52.150;8.428;2023-08-31T05:36:00;12.80;99.90
4435;DHT22;46552;52.150;8.428;2023-08-31T05:38:30;12.90;99.90
4435;DHT22;46552;52.150;8.428;2023-08-31T05:41:09;12.90;99.90
4435;DHT22;46552;52.150;8.428;2023-08-31T05:43:37;12.90;99.90
4435;DHT22;46552;52.150;8.428;2023-08-31T05:46:05;12.90;99.90
4435;DHT22;46552;52.150;8.428;2023-08-31T05:48:33;13.00;99.90
4435;DHT22;46552;52.150;8.428;2023-08-31T05:51:00;12.90;99.90
4435;DHT22;46552;52.150;8.428;2023-08-31T05:53:31;12.90;99.90
4435;DHT22;46552;52.150;8.428;2023-08-31T05:55:58;12.90;99.90
4435;DHT22;46552;52.150;8.428;2023-08-31T05:58:31;12.90;99.90
4435;DHT22;46552;52.150;8.428;2023-08-31T06:00:58;12.90;99.90
4435;DHT22;46552;52.150;8.428;2023-08-31T06:03:25;12.90;99.90
4435;DHT22;46552;52.150;8.428;2023-08-31T06:05:54;12.90;99.90
4435;DHT22;46552;52.150;8.428;2023-08-31T06:08:22;13.00;99.90
4435;DHT22;46552;52.150;8.428;2023-08-31T06:10:51;13.00;99.90
4435;DHT22;46552;52.150;8.428;2023-08-31T06:13:18;13.00;99.90
4435;DHT22;46552;52.150;8.428;2023-08-31T06:15:48;13.00;99.90
4435;DHT22;46552;52.150;8.428;2023-08-31T06:18:15;13.00;99.90
4435;DHT22;46552;52.150;8.428;2023-08-31T06:20:42;13.00;99.90
4435;DHT22;46552;52.150;8.428;2023-08-31T06:23:10;13.00;99.90
4435;DHT22;46552;52.150;8.428;2023-08-31T06:25:37;13.10;99.90
4435;DHT22;46552;52.150;8.428;2023-08-31T06:28:07;13.10;99.90
4435;DHT22;46552;52.150;8.428;2023-08-31T06:30:34;13.10;99.90
4435;DHT22;46552;52.150;8.428;2023-08-31T06:33:01;13.20;99.90
4435;DHT22;46552;52.150;8.428;2023-08-31T06:35:28;13.30;99.90
4435;DHT22;46552;52.150;8.428;2023-08-31T06:37:59;13.40;99.90
4435;DHT22;46552;52.150;8.428;2023-08-31T06:40:26;13.50;99.90
4435;DHT22;46552;52.150;8.428;2023-08-31T06:42:54;13.50;99.90
4435;DHT22;46552;52.150;8.428;2023-08-31T06:45:25;13.50;99.90
4435;DHT22;46552;52.150;8.428;2023-08-31T06:47:54;13.60;99.90
4435;DHT22;46552;52.150;8.428;2023-08-31T06:50:21;13.60;99.90
4435;DHT22;46552;52.150;8.428;2023-08-31T06:52:48;13.70;99.90
4435;DHT22;46552;52.150;8.428;2023-08-31T06:55:15;13.70;99.90
4435;DHT22;46552;52.150;8.428;2023-08-31T06:57:45;13.70;99.90
4435;DHT22;46552;52.150;8.428;2023-08-31T07:00:17;13.70;99.90
4435;DHT22;46552;52.150;8.428;2023-08-31T07:02:45;13.70;99.90
4435;DHT22;46552;52.150;8.428;2023-08-31T07:05:12;13.60;99.90
4435;DHT22;46552;52.150;8.428;2023-08-31T07:07:39;13.60;99.90
4435;DHT22;46552;52.150;8.428;2023-08-31T07:10:07;13.60;99.90
4435;DHT22;46552;52.150;8.428;2023-08-31T07:12:35;13.60;99.90
4435;DHT22;46552;52.150;8.428;2023-08-31T07:15:02;13.60;99.90
4435;DHT22;46552;52.150;8.428;2023-08-31T07:17:30;13.70;99.90
4435;DHT22;46552;52.150;8.428;2023-08-31T07:20:01;13.70;99.90
4435;DHT22;46552;52.150;8.428;2023-08-31T07:22:32;13.70;99.90
4435;DHT22;46552;52.150;8.428;2023-08-31T07:25:00;13.60;99.90
4435;DHT22;46552;52.150;8.428;2023-08-31T07:27:29;13.60;99.90
4435;DHT22;46552;52.150;8.428;2023-08-31T07:29:57;13.70;99.90
4435;DHT22;46552;52.150;8.428;2023-08-31T07:32:25;13.70;99.90
4435;DHT22;46552;52.150;8.428;2023-08-31T07:34:52;13.80;99.90
4435;DHT22;46552;52.150;8.428;2023-08-31T07:37:20;13.90;99.90
4435;DHT22;46552;52.150;8.428;2023-08-31T07:39:48;14.00;99.90
4435;DHT22;46552;52.150;8.428;2023-08-31T07:42:15;14.10;99.90
4435;DHT22;46552;52.150;8.428;2023-08-31T07:44:42;14.10;99.90
4435;DHT22;46552;52.150;8.428;2023-08-31T07:47:09;14.10;99.90
4435;DHT22;46552;52.150;8.428;2023-08-31T07:49:37;14.10;99.90
4435;DHT22;46552;52.150;8.428;2023-08-31T07:52:04;14.20;99.90
4435;DHT22;46552;52.150;8.428;2023-08-31T07:54:33;14.20;99.90
4435;DHT22;46552;52.150;8.428;2023-08-31T07:57:01;14.20;99.90
4435;DHT22;46552;52.150;8.428;2023-08-31T07:59:28;14.20;99.90
4435;DHT22;46552;52.150;8.428;2023-08-31T08:01:55;14.20;99.90
4435;DHT22;46552;52.150;8.428;2023-08-31T08:04:22;14.10;99.90
4435;DHT22;46552;52.150;8.428;2023-08-31T08:06:51;14.20;99.90
4435;DHT22;46552;52.150;8.428;2023-08-31T08:09:19;14.20;99.90
4435;DHT22;46552;52.150;8.428;2023-08-31T08:11:49;14.20;99.90
4435;DHT22;46552;52.150;8.428;2023-08-31T08:14:16;14.20;99.90
4435;DHT22;46552;52.150;8.428;2023-08-31T08:16:44;14.30;99.90
4435;DHT22;46552;52.150;8.428;2023-08-31T08:19:11;14.30;99.90
4435;DHT22;46552;52.150;8.428;2023-08-31T08:21:39;14.30;99.90
4435;DHT22;46552;52.150;8.428;2023-08-31T08:24:08;14.40;99.90
4435;DHT22;46552;52.150;8.428;2023-08-31T08:26:35;14.60;99.90
4435;DHT22;46552;52.150;8.428;2023-08-31T08:29:03;14.60;99.90
4435;DHT22;46552;52.150;8.428;2023-08-31T08:31:30;14.70;99.90
4435;DHT22;46552;52.150;8.428;2023-08-31T08:33:57;14.80;99.90
4435;DHT22;46552;52.150;8.428;2023-08-31T08:36:26;15.00;99.90
4435;DHT22;46552;52.150;8.428;2023-08-31T08:38:53;15.20;99.90
4435;DHT22;46552;52.150;8.428;2023-08-31T08:41:23;15.30;99.90
4435;DHT22;46552;52.150;8.428;2023-08-31T08:43:51;15.50;99.90
4435;DHT22;46552;52.150;8.428;2023-08-31T08:46:20;15.60;99.90
4435;DHT22;46552;52.150;8.428;2023-08-31T08:48:47;15.60;99.90
4435;DHT22;46552;52.150;8.428;2023-08-31T08:51:16;15.60;99.90
4435;DHT22;46552;52.150;8.428;2023-08-31T08:53:43;15.70;99.90
4435;DHT22;46552;52.150;8.428;2023-08-31T08:56:10;16.00;99.90
4435;DHT22;46552;52.150;8.428;2023-08-31T08:58:37;16.20;99.90
4435;DHT22;46552;52.150;8.428;2023-08-31T09:01:07;16.40;99.90
4435;DHT22;46552;52.150;8.428;2023-08-31T09:03:36;16.60;99.90
4435;DHT22;46552;52.150;8.428;2023-08-31T09:06:03;16.80;99.90
4435;DHT22;46552;52.150;8.428;2023-08-31T09:08:33;17.10;99.90
4435;DHT22;46552;52.150;8.428;2023-08-31T09:11:02;17.40;99.90
4435;DHT22;46552;52.150;8.428;2023-08-31T09:13:30;17.50;99.90
4435;DHT22;46552;52.150;8.428;2023-08-31T09:15:57;17.50;99.90
4435;DHT22;46552;52.150;8.428;2023-08-31T09:18:26;17.50;99.90
4435;DHT22;46552;52.150;8.428;2023-08-31T09:20:56;17.50;99.90
4435;DHT22;46552;52.150;8.428;2023-08-31T09:23:23;17.60;99.90
4435;DHT22;46552;52.150;8.428;2023-08-31T09:25:53;17.80;99.90
4435;DHT22;46552;52.150;8.428;2023-08-31T09:28:21;18.10;99.90
4435;DHT22;46552;52.150;8.428;2023-08-31T09:30:50;18.50;99.90
4435;DHT22;46552;52.150;8.428;2023-08-31T09:33:19;18.60;99.90
4435;DHT22;46552;52.150;8.428;2023-08-31T09:35:51;18.70;99.90
4435;DHT22;46552;52.150;8.428;2023-08-31T09:38:20;18.60;99.90
4435;DHT22;46552;52.150;8.428;2023-08-31T09:40:47;18.40;99.90
4435;DHT22;46552;52.150;8.428;2023-08-31T09:43:23;18.20;99.90
4435;DHT22;46552;52.150;8.428;2023-08-31T09:45:52;18.30;99.90
4435;DHT22;46552;52.150;8.428;2023-08-31T09:48:20;18.30;99.90
4435;DHT22;46552;52.150;8.428;2023-08-31T09:50:49;18.70;99.90
4435;DHT22;46552;52.150;8.428;2023-08-31T09:53:21;18.90;99.90
4435;DHT22;46552;52.150;8.428;2023-08-31T09:55:51;19.10;99.90
4435;DHT22;46552;52.150;8.428;2023-08-31T09:58:20;19.10;99.90
4435;DHT22;46552;52.150;8.428;2023-08-31T10:00:49;19.00;99.90
4435;DHT22;46552;52.150;8.428;2023-08-31T10:03:16;18.70;99.90
4435;DHT22;46552;52.150;8.428;2023-08-31T10:05:43;18.70;99.90
4435;DHT22;46552;52.150;8.428;2023-08-31T10:08:10;19.00;99.90
4435;DHT22;46552;52.150;8.428;2023-08-31T10:10:40;19.20;99.90
4435;DHT22;46552;52.150;8.428;2023-08-31T10:13:08;19.50;99.90
4435;DHT22;46552;52.150;8.428;2023-08-31T10:15:36;19.70;99.90
4435;DHT22;46552;52.150;8.428;2023-08-31T10:18:04;19.90;99.90
4435;DHT22;46552;52.150;8.428;2023-08-31T10:20:32;20.10;99.90
4435;DHT22;46552;52.150;8.428;2023-08-31T10:23:02;20.00;99.90
4435;DHT22;46552;52.150;8.428;2023-08-31T10:26:02;19.90;99.90
4435;DHT22;46552;52.150;8.428;2023-08-31T10:28:40;19.50;99.90
4435;DHT22;46552;52.150;8.428;2023-08-31T10:31:08;19.10;99.90
4435;DHT22;46552;52.150;8.428;2023-08-31T10:33:40;18.70;99.90
4435;DHT22;46552;52.150;8.428;2023-08-31T10:36:11;18.30;99.90
4435;DHT22;46552;52.150;8.428;2023-08-31T10:38:38;18.00;99.90
4435;DHT22;46552;52.150;8.428;2023-08-31T10:41:21;17.70;99.90
4435;DHT22;46552;52.150;8.428;2023-08-31T10:43:49;17.50;99.90
4435;DHT22;46552;52.150;8.428;2023-08-31T10:46:28;17.30;99.90
4435;DHT22;46552;52.150;8.428;2023-08-31T10:48:56;17.20;99.90
4435;DHT22;46552;52.150;8.428;2023-08-31T10:51:25;17.20;99.90
4435;DHT22;46552;52.150;8.428;2023-08-31T10:54:03;17.20;99.90
4435;DHT22;46552;52.150;8.428;2023-08-31T10:56:33;17.30;99.90
4435;DHT22;46552;52.150;8.428;2023-08-31T10:59:06;17.30;99.90
4435;DHT22;46552;52.150;8.428;2023-08-31T11:01:55;17.20;99.90
4435;DHT22;46552;52.150;8.428;2023-08-31T11:04:24;17.10;99.90
4435;DHT22;46552;52.150;8.428;2023-08-31T11:07:12;17.00;99.90
4435;DHT22;46552;52.150;8.428;2023-08-31T11:09:39;17.00;99.90
4435;DHT22;46552;52.150;8.428;2023-08-31T11:12:09;17.20;99.90
4435;DHT22;46552;52.150;8.428;2023-08-31T11:14:36;17.50;99.90
4435;DHT22;46552;52.150;8.428;2023-08-31T11:17:04;17.70;99.90
4435;DHT22;46552;52.150;8.428;2023-08-31T11:19:33;17.80;99.90
4435;DHT22;46552;52.150;8.428;2023-08-31T11:22:01;17.90;99.90
4435;DHT22;46552;52.150;8.428;2023-08-31T11:24:28;18.00;99.90
4435;DHT22;46552;52.150;8.428;2023-08-31T11:26:56;18.40;99.90
4435;DHT22;46552;52.150;8.428;2023-08-31T11:29:25;18.80;99.90
4435;DHT22;46552;52.150;8.428;2023-08-31T11:31:56;19.20;99.90
4435;DHT22;46552;52.150;8.428;2023-08-31T11:34:25;19.30;99.90
4435;DHT22;46552;52.150;8.428;2023-08-31T11:36:53;19.20;99.90
4435;DHT22;46552;52.150;8.428;2023-08-31T11:39:21;18.90;99.90
4435;DHT22;46552;52.150;8.428;2023-08-31T11:41:49;18.80;99.90
4435;DHT22;46552;52.150;8.428;2023-08-31T11:44:17;18.30;99.90
4435;DHT22;46552;52.150;8.428;2023-08-31T11:46:46;18.00;99.90
4435;DHT22;46552;52.150;8.428;2023-08-31T11:49:15;17.60;99.90
4435;DHT22;46552;52.150;8.428;2023-08-31T11:51:43;17.30;99.90
4435;DHT22;46552;52.150;8.428;2023-08-31T11:54:11;17.20;99.90
4435;DHT22;46552;52.150;8.428;2023-08-31T11:56:39;17.20;99.90
4435;DHT22;46552;52.150;8.428;2023-08-31T11:59:09;17.20;99.90
4435;DHT22;46552;52.150;8.428;2023-08-31T12:01:38;17.30;99.90
4435;DHT22;46552;52.150;8.428;2023-08-31T12:04:15;17.30;99.90
4435;DHT22;46552;52.150;8.428;2023-08-31T12:06:46;17.40;99.90
4435;DHT22;46552;52.150;8.428;2023-08-31T12:09:14;17.30;99.90
4435;DHT22;46552;52.150;8.428;2023-08-31T12:11:41;17.20;99.90
4435;DHT22;46552;52.150;8.428;2023-08-31T12:14:21;17.10;99.90
4435;DHT22;46552;52.150;8.428;2023-08-31T12:16:50;16.90;99.90
4435;DHT22;46552;52.150;8.428;2023-08-31T12:19:20;16.90;99.90
4435;DHT22;46552;52.150;8.428;2023-08-31T12:21:54;16.80;99.90
4435;DHT22;46552;52.150;8.428;2023-08-31T12:24:21;16.80;99.90
4435;DHT22;46552;52.150;8.428;2023-08-31T12:26:49;16.90;99.90
4435;DHT22;46552;52.150;8.428;2023-08-31T12:29:16;17.10;99.90
4435;DHT22;46552;52.150;8.428;2023-08-31T12:31:44;17.30;99.90
4435;DHT22;46552;52.150;8.428;2023-08-31T12:34:11;17.50;99.90
4435;DHT22;46552;52.150;8.428;2023-08-31T12:36:40;17.90;99.90
4435;DHT22;46552;52.150;8.428;2023-08-31T12:39:07;18.40;99.90
4435;DHT22;46552;52.150;8.428;2023-08-31T12:41:35;18.90;99.90
4435;DHT22;46552;52.150;8.428;2023-08-31T12:44:04;19.40;99.90
4435;DHT22;46552;52.150;8.428;2023-08-31T12:46:32;19.80;99.90
4435;DHT22;46552;52.150;8.428;2023-08-31T12:48:59;20.00;99.90
4435;DHT22;46552;52.150;8.428;2023-08-31T12:51:28;20.30;99.90
4435;DHT22;46552;52.150;8.428;2023-08-31T12:53:58;20.30;99.90
4435;DHT22;46552;52.150;8.428;2023-08-31T12:56:25;20.30;99.90
4435;DHT22;46552;52.150;8.428;2023-08-31T12:58:53;20.30;99.90
4435;DHT22;46552;52.150;8.428;2023-08-31T13:01:21;20.30;99.90
4435;DHT22;46552;52.150;8.428;2023-08-31T13:03:49;20.30;99.90
4435;DHT22;46552;52.150;8.428;2023-08-31T13:06:16;20.30;99.90
4435;DHT22;46552;52.150;8.428;2023-08-31T13:08:44;20.30;99.90
4435;DHT22;46552;52.150;8.428;2023-08-31T13:11:13;20.20;99.90
4435;DHT22;46552;52.150;8.428;2023-08-31T13:13:40;20.10;99.90
4435;DHT22;46552;52.150;8.428;2023-08-31T13:16:09;20.00;99.90
4435;DHT22;46552;52.150;8.428;2023-08-31T13:18:37;19.80;99.90
4435;DHT22;46552;52.150;8.428;2023-08-31T13:21:06;19.60;99.90
4435;DHT22;46552;52.150;8.428;2023-08-31T13:23:33;19.40;99.90
4435;DHT22;46552;52.150;8.428;2023-08-31T13:26:00;19.20;99.90
4435;DHT22;46552;52.150;8.428;2023-08-31T13:28:29;19.10;99.90
4435;DHT22;46552;52.150;8.428;2023-08-31T13:30:57;19.00;99.90
4435;DHT22;46552;52.150;8.428;2023-08-31T13:33:26;18.90;99.90
4435;DHT22;46552;52.150;8.428;2023-08-31T13:35:56;18.80;99.90
4435;DHT22;46552;52.150;8.428;2023-08-31T13:38:23;18.70;99.90
4435;DHT22;46552;52.150;8.428;2023-08-31T13:40:54;18.60;99.90
4435;DHT22;46552;52.150;8.428;2023-08-31T13:43:22;18.40;99.90
4435;DHT22;46552;52.150;8.428;2023-08-31T13:45:51;18.30;99.90
4435;DHT22;46552;52.150;8.428;2023-08-31T13:48:19;18.20;99.90
4435;DHT22;46552;52.150;8.428;2023-08-31T13:50:48;18.10;99.90
4435;DHT22;46552;52.150;8.428;2023-08-31T13:53:15;18.00;99.90
4435;DHT22;46552;52.150;8.428;2023-08-31T13:55:42;18.00;99.90
4435;DHT22;46552;52.150;8.428;2023-08-31T13:58:09;18.00;99.90
4435;DHT22;46552;52.150;8.428;2023-08-31T14:00:37;17.90;99.90
4435;DHT22;46552;52.150;8.428;2023-08-31T14:03:06;18.10;99.90
4435;DHT22;46552;52.150;8.428;2023-08-31T14:05:34;18.30;99.90
4435;DHT22;46552;52.150;8.428;2023-08-31T14:08:01;18.50;99.90
4435;DHT22;46552;52.150;8.428;2023-08-31T14:10:30;18.80;99.90
4435;DHT22;46552;52.150;8.428;2023-08-31T14:12:58;19.10;99.90
4435;DHT22;46552;52.150;8.428;2023-08-31T14:15:25;19.30;99.90
4435;DHT22;46552;52.150;8.428;2023-08-31T14:17:53;19.40;99.90
4435;DHT22;46552;52.150;8.428;2023-08-31T14:20:21;19.40;99.90
4435;DHT22;46552;52.150;8.428;2023-08-31T14:22:48;19.30;99.90
4435;DHT22;46552;52.150;8.428;2023-08-31T14:25:16;19.10;99.90
4435;DHT22;46552;52.150;8.428;2023-08-31T14:27:43;18.90;99.90
4435;DHT22;46552;52.150;8.428;2023-08-31T14:30:11;18.80;99.90
4435;DHT22;46552;52.150;8.428;2023-08-31T14:32:38;18.80;99.90
4435;DHT22;46552;52.150;8.428;2023-08-31T14:35:05;18.80;99.90
4435;DHT22;46552;52.150;8.428;2023-08-31T14:37:34;18.80;99.90
4435;DHT22;46552;52.150;8.428;2023-08-31T14:40:03;18.80;99.90
4435;DHT22;46552;52.150;8.428;2023-08-31T14:42:32;18.90;99.90
4435;DHT22;46552;52.150;8.428;2023-08-31T14:45:01;18.80;99.90
4435;DHT22;46552;52.150;8.428;2023-08-31T14:47:28;18.80;99.90
4435;DHT22;46552;52.150;8.428;2023-08-31T14:49:55;18.70;99.90
4435;DHT22;46552;52.150;8.428;2023-08-31T14:52:22;18.70;99.90
4435;DHT22;46552;52.150;8.428;2023-08-31T14:54:51;18.60;99.90
4435;DHT22;46552;52.150;8.428;2023-08-31T14:57:18;18.50;99.90
4435;DHT22;46552;52.150;8.428;2023-08-31T14:59:46;18.50;99.90
4435;DHT22;46552;52.150;8.428;2023-08-31T15:02:13;18.50;99.90
4435;DHT22;46552;52.150;8.428;2023-08-31T15:04:41;18.60;99.90
4435;DHT22;46552;52.150;8.428;2023-08-31T15:07:09;18.70;99.90
4435;DHT22;46552;52.150;8.428;2023-08-31T15:09:38;18.80;99.90
4435;DHT22;46552;52.150;8.428;2023-08-31T15:12:07;18.90;99.90
4435;DHT22;46552;52.150;8.428;2023-08-31T15:14:34;19.00;99.90
4435;DHT22;46552;52.150;8.428;2023-08-31T15:17:03;19.10;99.90
4435;DHT22;46552;52.150;8.428;2023-08-31T15:19:30;19.10;99.90
4435;DHT22;46552;52.150;8.428;2023-08-31T15:21:57;19.20;99.90
4435;DHT22;46552;52.150;8.428;2023-08-31T15:24:25;19.20;99.90
4435;DHT22;46552;52.150;8.428;2023-08-31T15:26:52;19.20;99.90
4435;DHT22;46552;52.150;8.428;2023-08-31T15:29:22;19.30;99.90
4435;DHT22;46552;52.150;8.428;2023-08-31T15:31:49;19.30;99.90
4435;DHT22;46552;52.150;8.428;2023-08-31T15:34:16;19.30;99.90
4435;DHT22;46552;52.150;8.428;2023-08-31T15:36:43;19.30;99.90
4435;DHT22;46552;52.150;8.428;2023-08-31T15:39:11;19.50;99.90
4435;DHT22;46552;52.150;8.428;2023-08-31T15:41:39;19.50;99.90
4435;DHT22;46552;52.150;8.428;2023-08-31T15:44:07;19.70;99.90
4435;DHT22;46552;52.150;8.428;2023-08-31T15:46:35;19.60;99.90
4435;DHT22;46552;52.150;8.428;2023-08-31T15:49:02;19.50;99.90
4435;DHT22;46552;52.150;8.428;2023-08-31T15:51:30;19.40;99.90
4435;DHT22;46552;52.150;8.428;2023-08-31T15:53:58;19.30;99.90